Time;durP1;ratioP1;P1;durP2;ratioP2;P2;SDS_P1;SDS_P2;PMS_P1;PMS_P2;Temp;Humidity;BMP_temperature;BMP_pressure;BME280_temperature;BME280_humidity;BME280_pressure;Samples;Min_cycle;Max_cycle;Signal;HPM_P1;HPM_P2
2023/12/02 00:00:20;;;;;;;28.57;17.03;;;1.00;1.00;;;;;;5019455;28;20278;-86
2023/12/02 00:02:49;;;;;;;25.50;15.60;;;1.00;1.00;;;;;;5028535;28;20203;-87
2023/12/02 00:05:15;;;;;;;28.60;17.80;;;1.00;1.00;;;;;;5028436;28;20223;-86
2023/12/02 00:07:40;;;;;;;21.90;15.17;;;1.00;1.00;;;;;;5027846;28;20199;-88
2023/12/02 00:10:06;;;;;;;23.37;15.37;;;1.00;1.00;;;;;;5023197;28;21112;-87
2023/12/02 00:12:32;;;;;;;22.90;15.25;;;0.90;1.00;;;;;;5011781;28;20182;-87
2023/12/02 00:14:57;;;;;;;27.23;14.93;;;0.90;1.00;;;;;;5011643;28;20686;-85
2023/12/02 00:17:23;;;;;;;25.87;16.00;;;0.90;1.00;;;;;;5013161;28;20198;-86
2023/12/02 00:19:48;;;;;;;28.90;16.90;;;0.90;1.00;;;;;;5031215;28;20178;-84
2023/12/02 00:22:14;;;;;;;24.60;14.70;;;0.90;1.00;;;;;;5028157;28;20210;-86
2023/12/02 00:24:39;;;;;;;24.80;14.53;;;0.90;1.00;;;;;;5024141;28;20290;-86
2023/12/02 00:27:05;;;;;;;30.87;15.03;;;0.90;1.00;;;;;;5008393;28;20202;-86
2023/12/02 00:29:30;;;;;;;23.63;15.20;;;0.90;1.00;;;;;;5029093;28;20541;-85
2023/12/02 00:31:56;;;;;;;24.77;14.67;;;0.90;1.00;;;;;;5027328;28;20194;-86
2023/12/02 00:34:21;;;;;;;23.67;13.77;;;0.90;1.00;;;;;;5025055;28;20182;-85
2023/12/02 00:36:49;;;;;;;23.20;13.97;;;0.90;1.00;;;;;;5034726;28;20174;-86
2023/12/02 00:39:14;;;;;;;26.75;15.57;;;0.80;1.00;;;;;;5031421;28;20214;-84
2023/12/02 00:41:40;;;;;;;24.00;14.97;;;0.80;1.00;;;;;;5024232;28;20240;-85
2023/12/02 00:44:06;;;;;;;27.90;15.75;;;0.80;1.00;;;;;;5014751;28;20269;-85
2023/12/02 00:46:32;;;;;;;23.37;14.23;;;0.80;1.00;;;;;;5028244;28;20179;-85
2023/12/02 00:48:57;;;;;;;29.67;15.83;;;0.80;10.60;;;;;;5027385;28;20253;-86
2023/12/02 00:51:23;;;;;;;27.10;14.03;;;0.80;1.00;;;;;;5014138;28;20484;-88
2023/12/02 00:53:48;;;;;;;22.97;14.70;;;0.80;7.10;;;;;;5009373;28;20191;-87
2023/12/02 00:56:14;;;;;;;23.40;14.73;;;0.80;11.80;;;;;;5033586;28;20708;-87
2023/12/02 00:58:39;;;;;;;22.50;14.70;;;0.90;36.60;;;;;;5014943;28;20214;-87
2023/12/02 01:01:06;;;;;;;23.10;14.20;;;0.90;22.00;;;;;;5028528;28;20187;-86
2023/12/02 01:03:31;;;;;;;24.98;13.77;;;0.90;4.20;;;;;;5028799;28;20194;-87
2023/12/02 01:05:57;;;;;;;20.37;12.70;;;0.90;8.90;;;;;;5023038;28;20194;-86
2023/12/02 01:08:22;;;;;;;24.20;13.87;;;0.90;25.20;;;;;;5007043;28;20218;-87
2023/12/02 01:10:47;;;;;;;20.87;12.43;;;0.90;1.00;;;;;;5003422;28;20610;-88
2023/12/02 01:13:13;;;;;;;23.23;13.67;;;1.00;8.60;;;;;;5016692;28;20234;-87
2023/12/02 01:15:39;;;;;;;25.30;13.43;;;1.00;25.80;;;;;;5006272;28;20183;-86
2023/12/02 01:18:04;;;;;;;23.67;14.77;;;1.00;1.00;;;;;;5017875;28;20261;-85
2023/12/02 01:20:30;;;;;;;24.23;14.57;;;0.90;1.00;;;;;;5018836;28;20194;-86
2023/12/02 01:22:55;;;;;;;24.70;15.33;;;0.90;1.00;;;;;;5008916;28;20208;-85
2023/12/02 01:25:21;;;;;;;25.67;16.27;;;0.90;1.00;;;;;;5012299;28;20688;-87
2023/12/02 01:27:47;;;;;;;25.40;15.83;;;0.90;1.00;;;;;;5027899;28;20210;-86
2023/12/02 01:30:13;;;;;;;26.20;16.87;;;0.90;8.10;;;;;;5010136;28;20450;-86
2023/12/02 01:32:38;;;;;;;26.73;15.83;;;1.00;23.80;;;;;;5023315;28;20183;-87
2023/12/02 01:35:04;;;;;;;24.77;13.90;;;1.00;35.60;;;;;;5000168;28;20446;-86
2023/12/02 01:37:29;;;;;;;25.83;15.33;;;1.00;31.40;;;;;;5010534;28;20250;-87
2023/12/02 01:39:55;;;;;;;27.27;16.90;;;1.00;90.10;;;;;;5023300;28;20481;-86
2023/12/02 01:42:20;;;;;;;29.20;17.40;;;1.00;99.90;;;;;;5003333;28;20283;-88
2023/12/02 01:44:46;;;;;;;27.37;16.77;;;1.10;99.90;;;;;;5026795;28;20234;-86
2023/12/02 01:47:12;;;;;;;27.07;17.00;;;1.20;99.90;;;;;;5004740;28;20202;-87
2023/12/02 01:49:39;;;;;;;26.50;16.03;;;1.20;99.90;;;;;;5022429;28;20207;-87
2023/12/02 01:52:04;;;;;;;28.38;17.55;;;1.20;96.00;;;;;;5010701;28;20197;-86
2023/12/02 01:54:30;;;;;;;24.73;16.10;;;1.20;99.90;;;;;;5020255;28;20183;-85
2023/12/02 01:56:56;;;;;;;31.10;17.73;;;1.20;99.90;;;;;;5022575;28;20194;-87
2023/12/02 01:59:22;;;;;;;29.73;18.47;;;1.30;99.90;;;;;;5016303;28;20179;-87
2023/12/02 02:01:48;;;;;;;26.33;17.20;;;1.30;99.90;;;;;;5021768;28;20265;-86
2023/12/02 02:04:13;;;;;;;28.43;17.33;;;1.30;99.90;;;;;;5019823;28;20226;-86
2023/12/02 02:06:39;;;;;;;25.83;16.07;;;1.30;99.90;;;;;;5022970;28;20186;-86
2023/12/02 02:09:05;;;;;;;27.50;17.60;;;1.30;99.90;;;;;;5022023;28;20202;-86
2023/12/02 02:11:30;;;;;;;26.10;16.57;;;1.40;99.90;;;;;;5011811;28;20179;-87
2023/12/02 02:13:56;;;;;;;27.27;18.00;;;1.40;88.30;;;;;;5023279;28;20183;-85
2023/12/02 02:16:22;;;;;;;23.37;15.47;;;1.30;62.60;;;;;;5010009;28;20497;-86
2023/12/02 02:18:47;;;;;;;25.93;16.70;;;1.30;54.00;;;;;;5003468;28;20268;-87
2023/12/02 02:21:20;;;;;;;23.23;15.63;;;1.30;53.40;;;;;;5023917;28;20194;-87
2023/12/02 02:23:46;;;;;;;29.63;17.10;;;1.30;91.90;;;;;;5023235;28;20207;-86
2023/12/02 02:26:11;;;;;;;25.47;15.40;;;1.40;79.60;;;;;;5001110;28;20526;-86
2023/12/02 02:28:37;;;;;;;30.03;17.03;;;1.30;51.70;;;;;;5022036;28;20245;-87
2023/12/02 02:31:02;;;;;;;27.57;16.93;;;1.40;55.00;;;;;;5008580;28;20202;-86
2023/12/02 02:33:28;;;;;;;23.20;15.33;;;1.40;66.40;;;;;;5020530;28;20203;-88
2023/12/02 02:35:54;;;;;;;24.20;15.20;;;1.40;40.60;;;;;;5021891;28;20174;-87
2023/12/02 02:38:19;;;;;;;26.83;15.00;;;1.30;37.90;;;;;;5025105;28;20477;-89
2023/12/02 02:40:45;;;;;;;25.20;15.67;;;1.30;14.00;;;;;;5021218;28;20189;-87
2023/12/02 02:43:11;;;;;;;26.20;16.17;;;1.30;26.70;;;;;;5020771;28;20253;-87
2023/12/02 02:45:37;;;;;;;26.73;15.07;;;1.30;32.50;;;;;;5024928;28;20640;-88
2023/12/02 02:48:02;;;;;;;26.20;16.03;;;1.30;1.00;;;;;;5024326;28;20504;-87
2023/12/02 02:50:28;;;;;;;25.40;15.70;;;1.30;3.90;;;;;;5008645;28;21009;-88
2023/12/02 02:52:53;;;;;;;24.90;16.10;;;1.30;23.20;;;;;;5025096;28;20215;-86
2023/12/02 02:55:19;;;;;;;22.13;14.77;;;1.20;37.40;;;;;;5025017;28;20194;-88
2023/12/02 02:57:45;;;;;;;24.63;15.73;;;1.30;36.50;;;;;;5019008;28;20205;-87
2023/12/02 03:00:11;;;;;;;24.65;16.25;;;1.30;3.50;;;;;;5003499;28;20207;-88
2023/12/02 03:02:37;;;;;;;21.70;14.50;;;1.30;1.00;;;;;;5018065;28;20236;-87
2023/12/02 03:05:07;;;;;;;26.38;16.20;;;1.30;1.00;;;;;;5020952;28;20205;-88
2023/12/02 03:07:33;;;;;;;21.58;14.80;;;1.20;1.00;;;;;;5024766;28;20229;-88
2023/12/02 03:09:59;;;;;;;23.67;13.98;;;1.20;1.00;;;;;;5020329;28;20186;-88
2023/12/02 03:12:25;;;;;;;21.88;12.45;;;1.20;1.00;;;;;;5018292;28;20660;-86
2023/12/02 03:14:51;;;;;;;17.33;11.68;;;1.20;1.00;;;;;;5021602;28;20226;-86
2023/12/02 03:17:18;;;;;;;19.85;12.13;;;1.20;1.00;;;;;;5007660;28;20221;-87
2023/12/02 03:19:43;;;;;;;20.30;11.82;;;1.20;1.00;;;;;;5005207;28;20187;-87
2023/12/02 03:22:09;;;;;;;19.93;12.10;;;1.30;1.00;;;;;;5019329;28;20692;-88
2023/12/02 03:24:35;;;;;;;19.70;11.20;;;1.30;1.00;;;;;;5006909;28;20194;-87
2023/12/02 03:27:02;;;;;;;23.83;14.50;;;1.30;1.00;;;;;;5019827;28;20181;-89
2023/12/02 03:29:28;;;;;;;20.70;12.27;;;1.30;1.00;;;;;;5020755;28;20612;-87
2023/12/02 03:31:53;;;;;;;18.67;12.60;;;1.30;1.00;;;;;;5017584;28;20192;-87
2023/12/02 03:34:19;;;;;;;18.70;11.93;;;1.30;1.00;;;;;;5018932;28;20530;-88
2023/12/02 03:36:44;;;;;;;19.10;13.63;;;1.30;1.00;;;;;;5017651;28;20224;-86
2023/12/02 03:39:12;;;;;;;23.90;12.87;;;1.30;1.00;;;;;;5017966;28;20203;-88
2023/12/02 03:41:40;;;;;;;25.70;14.13;;;1.30;1.00;;;;;;5002656;28;20182;-86
2023/12/02 03:44:05;;;;;;;21.30;14.20;;;1.20;1.00;;;;;;5015968;28;20217;-86
2023/12/02 03:46:31;;;;;;;23.50;13.03;;;1.20;1.00;;;;;;5022553;28;20192;-87
2023/12/02 03:48:57;;;;;;;17.07;11.57;;;1.20;1.00;;;;;;5016687;28;20199;-87
2023/12/02 03:51:23;;;;;;;20.85;11.85;;;1.30;1.00;;;;;;5017839;28;20226;-86
2023/12/02 03:53:48;;;;;;;20.73;11.68;;;1.20;1.00;;;;;;5017700;28;20183;-88
2023/12/02 03:56:14;;;;;;;18.80;12.53;;;1.20;1.00;;;;;;5018526;28;20277;-87
2023/12/02 03:58:40;;;;;;;20.73;12.57;;;1.20;1.00;;;;;;5003399;28;20240;-88
2023/12/02 04:01:06;;;;;;;19.00;11.97;;;1.20;1.00;;;;;;5017462;28;20520;-88
2023/12/02 04:03:32;;;;;;;20.93;12.50;;;1.10;1.00;;;;;;5014094;28;20529;-87
2023/12/02 04:05:58;;;;;;;20.05;11.38;;;1.00;1.00;;;;;;5008118;28;23072;-87
2023/12/02 04:08:24;;;;;;;17.97;10.80;;;1.10;1.00;;;;;;5017186;28;20210;-87
2023/12/02 04:10:49;;;;;;;18.03;11.00;;;1.10;1.00;;;;;;5016791;28;20513;-88
2023/12/02 04:13:15;;;;;;;17.67;11.37;;;1.10;1.00;;;;;;5015448;28;20226;-86
2023/12/02 04:15:41;;;;;;;19.90;11.53;;;1.00;1.00;;;;;;5020358;28;20194;-88
2023/12/02 04:18:06;;;;;;;16.47;11.00;;;0.90;1.00;;;;;;5017612;28;20210;-88
2023/12/02 04:20:32;;;;;;;14.80;11.17;;;0.90;1.00;;;;;;5013800;28;20291;-87
2023/12/02 04:22:57;;;;;;;16.13;10.47;;;0.90;1.00;;;;;;5006440;28;21965;-88
2023/12/02 04:25:23;;;;;;;16.60;10.73;;;0.90;1.00;;;;;;5018453;28;20215;-88
2023/12/02 04:27:49;;;;;;;16.27;9.77;;;0.90;1.00;;;;;;5016254;28;20259;-86
2023/12/02 04:30:14;;;;;;;14.90;10.57;;;1.00;1.00;;;;;;4999429;28;20184;-85
2023/12/02 04:32:40;;;;;;;14.93;9.77;;;1.00;1.00;;;;;;5023078;28;20354;-86
2023/12/02 04:35:06;;;;;;;19.33;9.93;;;1.00;1.00;;;;;;5022519;28;20784;-89
2023/12/02 04:37:32;;;;;;;14.97;9.47;;;1.00;1.00;;;;;;5024928;28;20298;-87
2023/12/02 04:39:58;;;;;;;17.03;10.23;;;1.00;1.00;;;;;;5020468;28;20184;-88
2023/12/02 04:42:23;;;;;;;18.83;12.10;;;0.90;1.00;;;;;;5017170;28;20437;-87
2023/12/02 04:44:49;;;;;;;19.67;13.10;;;0.90;1.00;;;;;;5018141;28;20520;-86
2023/12/02 04:47:15;;;;;;;15.63;11.38;;;1.00;1.00;;;;;;5019801;28;20214;-88
2023/12/02 04:49:41;;;;;;;17.60;11.00;;;1.00;1.00;;;;;;5018190;28;20178;-88
2023/12/02 04:52:06;;;;;;;16.80;11.40;;;1.10;1.00;;;;;;5013949;28;20214;-87
2023/12/02 04:54:34;;;;;;;18.40;11.90;;;1.20;1.00;;;;;;4999354;28;20568;-87
2023/12/02 04:57:00;;;;;;;17.30;11.93;;;1.20;1.00;;;;;;5019777;28;20201;-87
2023/12/02 04:59:25;;;;;;;13.73;9.85;;;1.20;1.00;;;;;;5019687;28;20187;-88
2023/12/02 05:01:51;;;;;;;15.50;10.90;;;1.20;1.00;;;;;;5021462;28;20195;-88
2023/12/02 05:04:16;;;;;;;16.03;11.23;;;1.20;1.00;;;;;;4998913;28;20211;-88
2023/12/02 05:06:42;;;;;;;18.47;12.77;;;1.30;1.00;;;;;;5024485;28;20183;-86
2023/12/02 05:09:08;;;;;;;16.07;11.60;;;1.30;1.00;;;;;;5018024;28;20206;-87
2023/12/02 05:11:33;;;;;;;17.20;12.43;;;1.30;1.00;;;;;;5023941;28;20545;-87
2023/12/02 05:13:59;;;;;;;17.97;10.40;;;1.20;1.00;;;;;;5020547;28;20434;-88
2023/12/02 05:16:24;;;;;;;15.13;10.00;;;1.20;1.00;;;;;;5021302;28;20455;-88
2023/12/02 05:18:50;;;;;;;13.63;9.33;;;1.20;1.00;;;;;;5005690;28;20211;-87
2023/12/02 05:21:16;;;;;;;15.70;10.43;;;1.10;1.00;;;;;;5019611;28;20869;-87
2023/12/02 05:23:41;;;;;;;14.88;10.50;;;1.10;1.00;;;;;;5022049;28;20187;-87
2023/12/02 05:26:08;;;;;;;18.30;11.30;;;1.20;1.00;;;;;;5004311;28;20178;-88
2023/12/02 05:28:33;;;;;;;18.02;12.30;;;1.10;1.00;;;;;;5015771;28;20211;-87
2023/12/02 05:30:59;;;;;;;19.07;12.00;;;1.20;1.00;;;;;;5008034;28;20252;-87
2023/12/02 05:33:24;;;;;;;18.43;11.30;;;1.20;1.00;;;;;;5019806;28;20182;-86
2023/12/02 05:35:50;;;;;;;20.10;11.73;;;1.20;1.00;;;;;;5022936;28;20941;-87
2023/12/02 05:38:16;;;;;;;20.23;13.00;;;1.20;1.00;;;;;;5023856;28;20257;-88
2023/12/02 05:40:42;;;;;;;16.33;11.98;;;1.20;1.00;;;;;;5021271;28;20226;-87
2023/12/02 05:43:08;;;;;;;17.45;11.55;;;1.20;1.00;;;;;;5020984;28;20287;-86
2023/12/02 05:45:33;;;;;;;17.50;11.00;;;1.20;1.00;;;;;;5021046;28;20860;-88
2023/12/02 05:47:59;;;;;;;17.97;12.00;;;1.30;1.00;;;;;;5024065;28;20206;-88
2023/12/02 05:50:26;;;;;;;16.95;10.88;;;1.30;1.00;;;;;;5019739;28;20180;-88
2023/12/02 05:52:51;;;;;;;16.35;10.85;;;1.30;1.00;;;;;;5017463;28;20179;-87
2023/12/02 05:55:17;;;;;;;15.47;10.53;;;1.30;1.00;;;;;;5017275;28;20206;-88
2023/12/02 05:57:45;;;;;;;15.73;9.90;;;1.30;1.00;;;;;;5018944;28;20229;-86
2023/12/02 06:00:11;;;;;;;16.85;11.55;;;1.30;1.00;;;;;;5006862;28;20194;-88
2023/12/02 06:02:37;;;;;;;15.52;10.63;;;1.30;1.00;;;;;;5019528;28;20201;-87
2023/12/02 06:05:02;;;;;;;16.00;10.63;;;1.30;1.00;;;;;;5023553;28;20203;-87
2023/12/02 06:07:28;;;;;;;14.73;10.40;;;1.30;1.00;;;;;;5023149;28;20711;-86
2023/12/02 06:09:53;;;;;;;15.20;11.30;;;1.30;1.00;;;;;;5023462;28;20939;-87
2023/12/02 06:12:19;;;;;;;16.77;10.50;;;1.30;1.00;;;;;;5019222;28;20191;-88
2023/12/02 06:14:44;;;;;;;17.10;10.87;;;1.40;1.00;;;;;;5023378;28;20182;-87
2023/12/02 06:17:10;;;;;;;14.40;10.70;;;1.40;1.00;;;;;;5022859;28;20207;-88
2023/12/02 06:19:36;;;;;;;16.40;10.60;;;1.40;1.00;;;;;;5020855;28;20188;-86
2023/12/02 06:22:01;;;;;;;15.93;9.97;;;1.40;1.00;;;;;;5000059;28;20191;-88
2023/12/02 06:24:27;;;;;;;16.40;10.30;;;1.40;1.00;;;;;;5019992;28;20214;-87
2023/12/02 06:26:52;;;;;;;12.87;9.20;;;1.40;1.00;;;;;;5002740;28;20203;-87
2023/12/02 06:29:18;;;;;;;17.50;10.30;;;1.40;1.00;;;;;;4999553;28;24868;-87
2023/12/02 06:31:43;;;;;;;28.40;9.93;;;1.30;1.00;;;;;;5014682;28;20203;-86
2023/12/02 06:34:08;;;;;;;17.30;11.27;;;1.30;1.00;;;;;;5021628;28;20202;-87
2023/12/02 06:36:34;;;;;;;14.03;9.70;;;1.30;1.00;;;;;;5020595;28;20220;-88
2023/12/02 06:38:59;;;;;;;13.20;9.70;;;1.30;1.00;;;;;;5020380;28;20218;-87
2023/12/02 06:41:25;;;;;;;15.70;9.70;;;1.30;1.00;;;;;;5006463;28;20199;-88
2023/12/02 06:43:50;;;;;;;14.83;9.83;;;1.30;1.00;;;;;;4999553;28;20252;-87
2023/12/02 06:46:21;;;;;;;15.67;9.50;;;1.30;1.00;;;;;;5006730;28;20207;-88
2023/12/02 06:48:48;;;;;;;14.35;9.93;;;1.30;1.00;;;;;;5015505;28;20238;-87
2023/12/02 06:51:13;;;;;;;14.38;10.10;;;1.30;1.00;;;;;;5006669;28;20179;-87
2023/12/02 06:53:39;;;;;;;17.93;11.87;;;1.40;1.00;;;;;;5017265;28;20820;-87
2023/12/02 06:56:05;;;;;;;13.13;10.10;;;1.40;1.00;;;;;;5021313;28;20617;-88
2023/12/02 06:58:30;;;;;;;15.85;9.85;;;1.40;1.00;;;;;;5016406;28;20198;-88
2023/12/02 07:00:56;;;;;;;15.87;10.70;;;1.30;1.00;;;;;;4999299;28;20259;-87
2023/12/02 07:03:21;;;;;;;16.03;10.03;;;1.30;1.00;;;;;;5018690;28;20193;-88
2023/12/02 07:05:47;;;;;;;14.57;9.50;;;1.30;1.00;;;;;;4994739;28;20639;-88
2023/12/02 07:08:12;;;;;;;13.10;8.80;;;1.30;1.00;;;;;;5019043;28;20198;-88
2023/12/02 07:10:38;;;;;;;13.53;10.57;;;1.30;1.00;;;;;;5020481;28;20346;-88
2023/12/02 07:13:03;;;;;;;16.87;10.30;;;1.30;1.00;;;;;;5018847;28;20193;-88
2023/12/02 07:15:29;;;;;;;16.20;10.30;;;1.50;1.00;;;;;;5000494;28;20179;-86
2023/12/02 07:17:54;;;;;;;12.83;9.00;;;1.50;1.00;;;;;;5018416;28;20199;-88
2023/12/02 07:20:20;;;;;;;12.90;9.80;;;1.50;1.00;;;;;;5016282;28;20197;-86
2023/12/02 07:22:46;;;;;;;12.87;8.93;;;1.60;1.00;;;;;;5017490;28;20213;-87
2023/12/02 07:25:11;;;;;;;13.33;9.07;;;1.60;1.00;;;;;;5001009;28;20212;-87
2023/12/02 07:27:37;;;;;;;15.40;9.33;;;1.60;1.00;;;;;;5016540;28;20280;-86
2023/12/02 07:30:02;;;;;;;13.23;8.37;;;1.60;1.00;;;;;;5014323;28;20195;-86
2023/12/02 07:32:28;;;;;;;13.13;9.30;;;1.60;1.00;;;;;;5005123;28;20183;-86
2023/12/02 07:34:53;;;;;;;13.37;9.30;;;1.70;1.00;;;;;;5019537;28;20448;-87
2023/12/02 07:37:19;;;;;;;16.40;9.77;;;1.70;1.00;;;;;;5016564;28;20240;-85
2023/12/02 07:39:45;;;;;;;16.53;10.20;;;1.70;1.00;;;;;;5016471;28;20192;-87
2023/12/02 07:42:11;;;;;;;15.05;10.57;;;1.70;1.00;;;;;;5020732;28;20197;-88
2023/12/02 07:44:36;;;;;;;21.30;10.90;;;1.70;1.00;;;;;;5017991;28;20210;-88
2023/12/02 07:47:02;;;;;;;14.70;10.40;;;1.70;1.00;;;;;;5017090;28;20190;-88
2023/12/02 07:49:27;;;;;;;16.37;10.70;;;1.70;1.00;;;;;;5003284;28;20221;-87
2023/12/02 07:51:53;;;;;;;15.30;10.30;;;1.70;1.00;;;;;;5018320;28;20770;-86
2023/12/02 07:54:18;;;;;;;15.60;10.97;;;1.70;1.00;;;;;;5021026;28;20929;-88
2023/12/02 07:56:44;;;;;;;15.97;10.37;;;1.70;1.00;;;;;;5018793;28;20186;-88
2023/12/02 07:59:09;;;;;;;15.30;11.10;;;1.70;1.00;;;;;;5016758;28;20620;-88
2023/12/02 08:01:35;;;;;;;15.63;10.73;;;1.80;1.00;;;;;;5013706;28;20270;-88
2023/12/02 08:04:00;;;;;;;17.70;11.60;;;1.80;1.00;;;;;;5017277;28;20230;-88
2023/12/02 08:06:26;;;;;;;20.90;11.70;;;1.80;1.00;;;;;;5015483;28;20303;-88
2023/12/02 08:08:53;;;;;;;15.40;11.00;;;1.80;1.00;;;;;;5015276;28;20582;-86
2023/12/02 08:11:19;;;;;;;18.23;11.05;;;1.90;1.00;;;;;;5001067;28;23108;-87
2023/12/02 08:13:45;;;;;;;14.85;10.43;;;2.00;1.00;;;;;;5017576;28;20186;-87
2023/12/02 08:16:10;;;;;;;15.13;10.20;;;2.10;1.00;;;;;;5017212;28;20178;-86
2023/12/02 08:18:36;;;;;;;14.37;9.70;;;2.10;1.00;;;;;;5016329;28;20211;-87
2023/12/02 08:21:02;;;;;;;15.97;10.77;;;2.10;1.00;;;;;;5017975;28;20183;-88
2023/12/02 08:23:28;;;;;;;17.33;11.02;;;2.20;1.00;;;;;;5002101;28;20215;-86
2023/12/02 08:25:54;;;;;;;13.77;11.00;;;2.80;1.00;;;;;;5018980;28;20213;-87
2023/12/02 08:28:19;;;;;;;17.30;11.17;;;3.90;1.00;;;;;;5001267;28;20199;-84
2023/12/02 08:30:45;;;;;;;14.87;10.87;;;4.60;99.90;;;;;;5015754;28;20617;-85
2023/12/02 08:33:10;;;;;;;17.40;10.90;;;5.60;99.90;;;;;;5018992;28;20242;-85
2023/12/02 08:35:36;;;;;;;17.43;12.20;;;6.90;99.90;;;;;;5018784;28;20193;-86
2023/12/02 08:38:01;;;;;;;19.07;13.27;;;8.00;99.90;;;;;;5004624;28;20233;-86
2023/12/02 08:40:27;;;;;;;20.47;14.20;;;8.80;99.90;;;;;;5000390;28;20293;-86
2023/12/02 08:42:53;;;;;;;18.40;14.30;;;9.20;99.90;;;;;;5017827;28;20256;-85
2023/12/02 08:45:18;;;;;;;18.20;13.40;;;9.20;99.90;;;;;;5019575;28;20211;-86
2023/12/02 08:47:44;;;;;;;15.13;11.57;;;8.90;99.90;;;;;;5022632;28;20544;-85
2023/12/02 08:50:09;;;;;;;13.30;10.77;;;8.60;99.90;;;;;;5014667;28;20244;-84
2023/12/02 08:52:35;;;;;;;16.07;12.10;;;8.40;99.90;;;;;;5012765;28;20530;-85
2023/12/02 08:55:01;;;;;;;15.80;12.67;;;8.00;99.90;;;;;;5021828;28;20211;-89
2023/12/02 08:57:26;;;;;;;17.53;13.17;;;7.50;99.90;;;;;;5022297;28;20293;-87
2023/12/02 08:59:52;;;;;;;16.10;11.87;;;7.30;99.90;;;;;;5019762;28;20195;-88
2023/12/02 09:02:17;;;;;;;18.60;11.80;;;7.00;99.90;;;;;;5015487;28;20194;-87
2023/12/02 09:04:43;;;;;;;15.90;12.23;;;6.70;99.90;;;;;;5007560;28;20210;-88
2023/12/02 09:07:09;;;;;;;17.60;10.90;;;6.50;99.90;;;;;;5016365;28;20210;-87
2023/12/02 09:09:34;;;;;;;16.47;12.03;;;6.30;99.90;;;;;;5021815;28;20171;-89
2023/12/02 09:12:00;;;;;;;13.77;10.70;;;6.20;99.90;;;;;;5019519;28;20183;-89
2023/12/02 09:14:25;;;;;;;16.70;12.20;;;6.00;99.90;;;;;;5023508;28;20183;-87
2023/12/02 09:16:51;;;;;;;16.20;12.20;;;5.80;99.90;;;;;;5023110;28;20193;-88
2023/12/02 09:19:29;;;;;;;17.10;10.27;;;5.80;99.90;;;;;;5024842;28;20241;-87
2023/12/02 09:21:54;;;;;;;14.93;10.73;;;5.90;99.90;;;;;;5021836;28;20250;-89
2023/12/02 09:24:40;;;;;;;16.47;11.50;;;5.80;99.90;;;;;;5016836;28;20306;-87
2023/12/02 09:27:07;;;;;;;14.70;10.65;;;5.70;99.90;;;;;;5004561;28;20198;-88
2023/12/02 09:29:41;;;;;;;18.45;11.50;;;5.70;99.90;;;;;;5021556;28;20219;-87
2023/12/02 09:32:18;;;;;;;13.00;10.32;;;5.70;99.90;;;;;;5019363;28;20197;-87
2023/12/02 09:34:56;;;;;;;14.52;11.07;;;5.80;99.90;;;;;;5001049;28;20755;-86
2023/12/02 09:37:53;;;;;;;24.30;15.65;;;5.70;99.90;;;;;;5011013;28;20206;-86
2023/12/02 09:40:25;;;;;;;16.60;12.27;;;5.80;99.90;;;;;;5008444;28;20189;-87
2023/12/02 09:43:18;;;;;;;19.92;13.93;;;5.80;99.90;;;;;;5022032;28;20179;-88
2023/12/02 09:46:16;;;;;;;14.82;10.73;;;5.70;99.90;;;;;;5028162;28;20222;-88
2023/12/02 09:48:53;;;;;;;19.13;13.23;;;5.30;99.90;;;;;;5024487;28;20252;-87
2023/12/02 09:51:33;;;;;;;17.17;12.63;;;5.20;99.90;;;;;;5032008;28;20225;-87
2023/12/02 09:54:20;;;;;;;19.08;12.50;;;5.00;99.90;;;;;;5012447;28;20217;-88
2023/12/02 09:56:54;;;;;;;18.33;13.32;;;4.80;99.90;;;;;;5024666;28;20193;-87
2023/12/02 09:59:45;;;;;;;15.63;10.43;;;4.90;99.90;;;;;;5025544;28;20834;-87
2023/12/02 10:02:42;;;;;;;15.60;11.30;;;5.00;99.90;;;;;;5012536;28;20199;-87
2023/12/02 10:05:12;;;;;;;18.63;12.85;;;5.00;99.90;;;;;;5011040;28;20221;-87
2023/12/02 10:07:55;;;;;;;20.00;11.10;;;5.00;99.90;;;;;;5028949;28;20222;-88
2023/12/02 10:10:36;;;;;;;14.02;11.25;;;5.00;99.90;;;;;;5026166;28;20187;-87
2023/12/02 10:13:23;;;;;;;17.33;11.30;;;5.00;99.90;;;;;;5028473;28;20282;-87
2023/12/02 10:15:53;;;;;;;16.83;11.13;;;4.80;99.90;;;;;;5022096;28;20210;-89
2023/12/02 10:18:22;;;;;;;17.48;12.02;;;4.70;99.90;;;;;;5008364;28;20313;-89
2023/12/02 10:20:58;;;;;;;17.85;12.60;;;4.50;99.90;;;;;;5008703;28;20232;-88
2023/12/02 10:23:31;;;;;;;18.10;12.98;;;4.30;99.90;;;;;;5020077;28;20186;-89
2023/12/02 10:26:05;;;;;;;18.15;12.90;;;4.10;99.90;;;;;;5022709;28;20238;-89
2023/12/02 10:28:57;;;;;;;21.80;16.30;;;4.00;99.90;;;;;;5024826;28;20203;-89
2023/12/02 10:31:32;;;;;;;18.35;12.27;;;3.90;99.90;;;;;;5025290;28;20185;-90
2023/12/02 10:34:18;;;;;;;25.58;14.35;;;3.80;99.90;;;;;;5015108;28;20616;-90
2023/12/02 10:36:46;;;;;;;84.03;38.65;;;3.80;99.90;;;;;;5033136;28;20210;-89
2023/12/02 10:39:24;;;;;;;91.10;37.15;;;3.90;99.90;;;;;;5032747;28;20171;-91
2023/12/02 10:41:58;;;;;;;19.00;11.60;;;3.90;99.90;;;;;;5013004;28;20179;-91
2023/12/02 10:44:24;;;;;;;18.60;12.93;;;3.90;99.90;;;;;;5013108;28;20301;-90
2023/12/02 10:46:53;;;;;;;18.65;12.30;;;4.00;99.90;;;;;;5007840;28;20657;-91
2023/12/02 10:49:19;;;;;;;17.65;12.63;;;4.00;99.90;;;;;;5026409;28;20577;-89
2023/12/02 10:51:49;;;;;;;18.58;12.20;;;4.00;99.90;;;;;;5034669;28;20615;-90
2023/12/02 10:54:17;;;;;;;17.13;11.50;;;4.10;99.90;;;;;;5033968;28;20179;-90
2023/12/02 10:56:48;;;;;;;30.40;18.20;;;4.10;99.90;;;;;;5032682;28;20186;-89
2023/12/02 10:59:16;;;;;;;19.60;12.75;;;3.90;99.90;;;;;;5033471;28;20178;-91
2023/12/02 11:01:45;;;;;;;18.45;12.75;;;3.80;99.90;;;;;;5010775;28;20190;-90
2023/12/02 11:04:24;;;;;;;20.90;11.88;;;3.90;99.90;;;;;;5030539;28;20263;-90
2023/12/02 11:06:53;;;;;;;16.42;12.27;;;3.90;99.90;;;;;;5032197;28;20531;-89
2023/12/02 11:09:30;;;;;;;19.10;12.88;;;3.90;99.90;;;;;;5027851;28;20180;-90
2023/12/02 11:12:04;;;;;;;17.42;11.40;;;4.00;99.90;;;;;;5032925;28;20187;-88
2023/12/02 11:14:41;;;;;;;15.15;10.43;;;4.40;99.90;;;;;;5036783;28;20212;-89
2023/12/02 11:17:16;;;;;;;17.77;12.23;;;5.60;99.90;;;;;;5033443;28;20190;-89
2023/12/02 11:20:05;;;;;;;15.57;12.60;;;6.90;99.90;;;;;;5034687;28;20432;-88
2023/12/02 11:22:43;;;;;;;15.17;12.30;;;8.30;99.90;;;;;;5033950;28;20480;-88
2023/12/02 11:25:45;;;;;;;14.90;11.80;;;9.60;99.90;;;;;;5030987;28;20465;-87
2023/12/02 11:28:33;;;;;;;17.63;12.80;;;10.70;99.90;;;;;;5028933;28;20460;-88
2023/12/02 11:31:01;;;;;;;16.33;13.10;;;11.60;99.90;;;;;;5009616;28;20465;-88
2023/12/02 11:33:54;;;;;;;16.80;13.10;;;12.20;99.90;;;;;;5013011;28;20534;-88
2023/12/02 11:36:37;;;;;;;16.37;13.10;;;12.70;99.90;;;;;;5033239;28;20444;-89
2023/12/02 11:39:21;;;;;;;17.50;13.80;;;12.90;99.90;;;;;;5029516;28;20461;-89
2023/12/02 11:41:58;;;;;;;18.10;13.77;;;13.10;99.90;;;;;;5027225;28;20442;-88
2023/12/02 11:45:01;;;;;;;20.37;14.30;;;12.80;99.90;;;;;;5023614;28;20476;-91
2023/12/02 11:47:51;;;;;;;17.00;13.77;;;12.90;99.90;;;;;;5022902;28;20453;-89
2023/12/02 11:50:40;;;;;;;14.47;12.43;;;13.20;99.90;;;;;;5036394;28;20528;-88
2023/12/02 11:53:24;;;;;;;14.47;12.17;;;13.50;99.90;;;;;;5032172;28;20918;-89
2023/12/02 11:55:55;;;;;;;18.50;14.70;;;13.50;99.90;;;;;;5022028;28;20441;-88
2023/12/02 11:58:34;;;;;;;19.37;15.90;;;13.70;99.90;;;;;;5032731;28;20465;-88
2023/12/02 12:01:36;;;;;;;17.47;14.20;;;13.60;99.90;;;;;;5025422;28;20441;-89
2023/12/02 12:04:44;;;;;;;20.20;15.83;;;13.60;99.90;;;;;;5028914;28;20444;-88
2023/12/02 12:07:19;;;;;;;20.40;15.30;;;13.50;99.90;;;;;;5026101;28;20492;-88
2023/12/02 12:10:14;;;;;;;21.43;17.27;;;13.70;99.90;;;;;;5032875;28;20437;-88
2023/12/02 12:12:44;;;;;;;20.63;16.87;;;13.60;99.90;;;;;;5031303;28;20446;-87
2023/12/02 12:15:10;;;;;;;20.27;16.33;;;13.70;99.90;;;;;;5027465;28;20452;-88
2023/12/02 12:17:36;;;;;;;21.40;16.90;;;13.70;99.90;;;;;;5036131;28;20466;-89
2023/12/02 12:20:18;;;;;;;21.20;17.40;;;13.60;99.90;;;;;;5031879;28;20224;-88
2023/12/02 12:22:44;;;;;;;24.87;17.13;;;12.90;99.90;;;;;;5029083;28;20448;-89
2023/12/02 12:25:09;;;;;;;22.87;17.40;;;12.80;99.90;;;;;;5034770;28;20471;-89
2023/12/02 12:27:35;;;;;;;22.73;17.63;;;12.90;99.90;;;;;;5024513;28;20245;-88
2023/12/02 12:30:00;;;;;;;26.20;19.53;;;12.70;99.90;;;;;;5029904;28;20247;-87
2023/12/02 12:32:26;;;;;;;23.90;17.90;;;12.60;99.90;;;;;;5028476;28;20187;-89
2023/12/02 12:34:53;;;;;;;24.50;17.43;;;12.50;99.90;;;;;;5024673;28;20179;-88
2023/12/02 12:37:19;;;;;;;20.87;15.90;;;12.50;99.90;;;;;;5035397;28;20278;-89
2023/12/02 12:39:45;;;;;;;22.23;16.90;;;12.10;99.90;;;;;;5027596;28;20437;-89
2023/12/02 12:42:12;;;;;;;21.10;15.77;;;12.00;99.90;;;;;;5027701;28;20463;-89
2023/12/02 12:44:39;;;;;;;24.73;17.53;;;11.80;99.90;;;;;;5032678;28;20265;-89
2023/12/02 12:47:09;;;;;;;23.47;16.23;;;11.50;99.90;;;;;;5028708;28;20842;-88
2023/12/02 12:49:42;;;;;;;22.00;16.10;;;11.50;99.90;;;;;;5031113;28;20428;-87